createdAt,value
2023-04-11T00:00:27.729Z,100617.15
2023-04-11T00:05:51.934Z,100606.27
2023-04-11T00:10:55.375Z,100599.82
2023-04-11T00:15:59.369Z,100592.17
2023-04-11T00:21:21.067Z,100585.86
2023-04-11T00:26:24.624Z,100586.30
2023-04-11T00:31:28.165Z,100581.17
2023-04-11T00:36:34.084Z,100580.33
2023-04-11T00:41:37.810Z,100573.38
2023-04-11T00:46:46.577Z,100567.83
2023-04-11T00:51:53.385Z,100563.35
2023-04-11T00:56:59.316Z,100557.66
2023-04-11T01:02:06.277Z,100555.12
2023-04-11T01:07:11.991Z,100550.61
2023-04-11T01:12:18.579Z,100548.20
2023-04-11T01:17:44.354Z,100539.76
2023-04-11T01:23:17.096Z,100536.86
2023-04-11T01:28:54.727Z,100538.49
2023-04-11T01:34:29.527Z,100534.21
2023-04-11T01:40:14.320Z,100535.29
2023-04-11T01:45:41.484Z,100534.48
2023-04-11T01:50:47.764Z,100526.55
2023-04-11T01:55:51.327Z,100524.62
2023-04-11T02:00:54.727Z,100517.68
2023-04-11T02:05:58.039Z,100508.68
2023-04-11T02:11:01.657Z,100500.02
2023-04-11T02:16:15.439Z,100496.23
2023-04-11T02:21:19.273Z,100492.29
2023-04-11T02:26:22.969Z,100493.72
2023-04-11T02:31:26.351Z,100486.46
2023-04-11T02:36:32.893Z,100484.42
2023-04-11T02:41:42.140Z,100477.67
2023-04-11T02:46:45.674Z,100473.04
2023-04-11T02:51:49.432Z,100471.86
2023-04-11T02:56:53.014Z,100471.31
2023-04-11T03:02:00.773Z,100462.64
2023-04-11T03:07:08.166Z,100462.42
2023-04-11T03:12:11.614Z,100456.55
2023-04-11T03:17:26.199Z,100449.95
2023-04-11T03:22:38.477Z,100444.04
2023-04-11T03:27:42.238Z,100440.18
2023-04-11T03:32:47.295Z,100445.52
2023-04-11T03:38:21.420Z,100440.11
2023-04-11T03:43:25.450Z,100435.50
2023-04-11T03:48:30.773Z,100438.05
2023-04-11T03:53:37.008Z,100437.61
2023-04-11T03:58:50.501Z,100434.20
2023-04-11T04:03:56.369Z,100426.95
2023-04-11T04:09:00.120Z,100428.16
2023-04-11T04:14:29.125Z,100432.69
2023-04-11T04:19:44.345Z,100431.64
2023-04-11T04:24:52.073Z,100436.66
2023-04-11T04:30:04.546Z,100434.02
2023-04-11T04:35:29.970Z,100432.58
2023-04-11T04:40:48.421Z,100426.23
2023-04-11T04:46:02.733Z,100416.32
2023-04-11T04:51:14.550Z,100415.87
2023-04-11T04:56:38.626Z,100411.61
2023-04-11T05:01:45.275Z,100413.10
2023-04-11T05:06:52.069Z,100411.58
2023-04-11T05:11:58.243Z,100420.70
2023-04-11T05:17:01.840Z,100414.48
2023-04-11T05:22:08.819Z,100406.09
2023-04-11T05:27:14.346Z,100399.02
2023-04-11T05:32:20.817Z,100387.11
2023-04-11T05:37:48.122Z,100384.80
2023-04-11T05:42:51.813Z,100376.76
2023-04-11T05:47:57.752Z,100367.60
2023-04-11T05:53:04.924Z,100365.27
2023-04-11T05:58:09.791Z,100350.45
2023-04-11T06:03:13.489Z,100347.38
2023-04-11T06:08:17.942Z,100342.39
2023-04-11T06:13:21.305Z,100337.74
2023-04-11T06:18:24.452Z,100334.31
2023-04-11T06:23:31.339Z,100328.52
2023-04-11T06:28:34.469Z,100325.82
2023-04-11T06:33:38.728Z,100321.31
2023-04-11T06:38:42.536Z,100316.48
2023-04-11T06:43:45.829Z,100314.56
2023-04-11T06:48:48.998Z,100312.41
2023-04-11T06:53:53.384Z,100308.40
2023-04-11T06:58:56.621Z,100299.27
2023-04-11T07:04:00.087Z,100295.09
2023-04-11T07:09:05.019Z,100286.11
2023-04-11T07:14:08.294Z,100275.16
2023-04-11T07:19:11.704Z,100271.06
2023-04-11T07:24:14.861Z,100264.96
2023-04-11T07:29:18.277Z,100263.45
2023-04-11T07:34:22.036Z,100258.13
2023-04-11T07:39:28.017Z,100245.61
2023-04-11T07:44:31.153Z,100237.71
2023-04-11T07:49:34.325Z,100235.33
2023-04-11T07:54:37.552Z,100232.42
2023-04-11T07:59:40.815Z,100220.04
2023-04-11T08:04:44.365Z,100219.60
2023-04-11T08:09:47.818Z,100217.34
2023-04-11T08:14:51.060Z,100210.41
2023-04-11T08:19:54.811Z,100213.41
2023-04-11T08:24:58.080Z,100209.80
2023-04-11T08:30:02.029Z,100205.06
2023-04-11T08:35:05.812Z,100194.48
2023-04-11T08:40:09.636Z,100179.48
2023-04-11T08:45:13.171Z,100163.46
2023-04-11T08:50:16.407Z,100161.44
2023-04-11T08:55:22.224Z,100153.57
2023-04-11T09:00:27.439Z,100147.52
2023-04-11T09:05:39.318Z,100138.69
2023-04-11T09:10:46.197Z,100132.27
2023-04-11T09:16:19.117Z,100125.61
2023-04-11T09:21:22.496Z,100116.00
2023-04-11T09:26:30.121Z,100105.02
2023-04-11T09:31:53.768Z,100080.59
2023-04-11T09:36:57.140Z,100069.29
2023-04-11T09:42:01.081Z,100052.59
2023-04-11T09:47:05.020Z,100045.64
2023-04-11T09:52:08.838Z,100039.61
2023-04-11T09:57:14.154Z,100039.59
2023-04-11T10:02:17.867Z,100030.06
2023-04-11T10:07:21.733Z,100025.38
2023-04-11T10:12:32.308Z,100020.13
2023-04-11T10:17:36.839Z,100016.90
2023-04-11T10:22:43.794Z,100009.02
2023-04-11T10:27:49.857Z,100009.38
2023-04-11T10:33:12.841Z,100006.58
2023-04-11T10:38:43.865Z,99994.55
2023-04-11T10:43:47.802Z,99982.73
2023-04-11T10:49:01.668Z,99981.66
2023-04-11T10:54:05.228Z,99978.15
2023-04-11T10:59:31.412Z,99978.38
2023-04-11T11:04:37.057Z,99981.62
2023-04-11T11:09:40.551Z,99973.19
2023-04-11T11:14:46.254Z,99964.52
2023-04-11T11:19:49.654Z,99964.59
2023-04-11T11:24:53.639Z,99956.34
2023-04-11T11:29:56.844Z,99947.84
2023-04-11T11:35:00.411Z,99935.67
2023-04-11T11:40:09.632Z,99934.31
2023-04-11T11:45:16.607Z,99935.50
2023-04-11T11:50:33.256Z,99927.73
2023-04-11T11:55:36.549Z,99927.73
2023-04-11T12:00:41.558Z,99923.84
2023-04-11T12:05:44.816Z,99916.74
2023-04-11T12:10:49.774Z,99913.01
2023-04-11T12:15:55.915Z,99910.02
2023-04-11T12:20:59.697Z,99906.46
2023-04-11T12:26:03.429Z,99905.77
2023-04-11T12:31:07.027Z,99895.89
2023-04-11T12:36:11.101Z,99887.30
2023-04-11T12:41:31.746Z,99875.96
2023-04-11T12:46:36.393Z,99862.05
2023-04-11T12:51:39.601Z,99850.13
2023-04-11T12:56:42.926Z,99849.17
2023-04-11T13:01:47.048Z,99848.60
2023-04-11T13:06:52.429Z,99848.84
2023-04-11T13:11:57.030Z,99841.09
2023-04-11T13:17:00.326Z,99832.20
2023-04-11T13:22:04.038Z,99821.11
2023-04-11T13:27:07.292Z,99815.83
2023-04-11T13:32:10.662Z,99812.34
2023-04-11T13:37:16.730Z,99803.17
2023-04-11T13:42:21.903Z,99799.16
2023-04-11T13:47:25.366Z,99798.16
2023-04-11T13:52:28.762Z,99794.58
2023-04-11T13:57:31.926Z,99783.86
2023-04-11T14:02:35.347Z,99777.91
2023-04-11T14:07:38.931Z,99775.77
2023-04-11T14:12:42.513Z,99765.91
2023-04-11T14:17:47.942Z,99757.02
2023-04-11T14:22:51.631Z,99757.86
2023-04-11T14:27:55.119Z,99752.54
2023-04-11T14:32:58.290Z,99751.39
2023-04-11T14:38:02.264Z,99744.13
2023-04-11T14:43:06.468Z,99742.34
2023-04-11T14:48:10.208Z,99743.16
2023-04-11T14:53:13.543Z,99736.03
2023-04-11T14:58:17.204Z,99728.27
2023-04-11T15:03:20.816Z,99725.84
2023-04-11T15:08:24.200Z,99720.41
2023-04-11T15:13:27.361Z,99719.15
2023-04-11T15:18:32.941Z,99711.76
2023-04-11T15:23:36.722Z,99706.45
2023-04-11T15:28:40.181Z,99701.19
2023-04-11T15:33:43.497Z,99698.42
2023-04-11T15:38:46.812Z,99703.88
2023-04-11T15:43:50.181Z,99700.40
2023-04-11T15:48:53.636Z,99693.71
2023-04-11T15:53:56.937Z,99688.92
2023-04-11T15:59:00.414Z,99685.84
2023-04-11T16:04:04.269Z,99683.36
2023-04-11T16:09:09.108Z,99680.11
2023-04-11T16:14:12.507Z,99677.16
2023-04-11T16:19:15.825Z,99674.45
2023-04-11T16:24:19.283Z,99675.60
2023-04-11T16:29:23.531Z,99668.78
2023-04-11T16:34:27.392Z,99663.23
2023-04-11T16:39:31.094Z,99661.41
2023-04-11T16:44:34.369Z,99656.34
2023-04-11T16:49:37.905Z,99655.26
2023-04-11T16:54:41.123Z,99651.20
2023-04-11T16:59:44.794Z,99651.48
2023-04-11T17:05:08.946Z,99647.27
2023-04-11T17:10:12.670Z,99644.95
2023-04-11T17:15:19.242Z,99637.90
2023-04-11T17:20:23.587Z,99636.48
2023-04-11T17:25:30.240Z,99640.38
2023-04-11T17:30:33.689Z,99635.27
2023-04-11T17:35:37.013Z,99640.42
2023-04-11T17:40:45.516Z,99643.10
2023-04-11T17:45:50.119Z,99638.61
2023-04-11T17:50:55.422Z,99638.69
2023-04-11T17:56:04.668Z,99641.00
2023-04-11T18:01:30.167Z,99644.90
2023-04-11T18:06:34.403Z,99650.66
2023-04-11T18:11:42.003Z,99657.58
2023-04-11T18:16:51.173Z,99659.36
2023-04-11T18:21:55.185Z,99661.48
2023-04-11T18:26:58.628Z,99663.99
2023-04-11T18:32:03.086Z,99672.68
2023-04-11T18:37:10.314Z,99673.27
2023-04-11T18:42:24.132Z,99671.48
2023-04-11T18:47:27.683Z,99672.80
2023-04-11T18:52:32.369Z,99673.20
2023-04-11T18:57:39.279Z,99676.34
2023-04-11T19:02:47.130Z,99672.90
2023-04-11T19:07:53.502Z,99673.59
2023-04-11T19:12:57.172Z,99678.63
2023-04-11T19:18:06.669Z,99678.05
2023-04-11T19:23:13.610Z,99679.60
2023-04-11T19:28:22.956Z,99679.98
2023-04-11T19:33:39.108Z,99681.75
2023-04-11T19:38:42.912Z,99679.99
2023-04-11T19:43:57.199Z,99679.48
2023-04-11T19:49:01.688Z,99674.94
2023-04-11T19:54:05.199Z,99677.05
2023-04-11T19:59:08.625Z,99676.85
2023-04-11T20:04:13.139Z,99680.59
2023-04-11T20:09:17.014Z,99684.81
2023-04-11T20:14:20.784Z,99683.98
2023-04-11T20:19:28.546Z,99681.38
2023-04-11T20:24:46.785Z,99677.94
2023-04-11T20:29:50.345Z,99673.77
2023-04-11T20:34:56.485Z,99674.84
2023-04-11T20:40:10.936Z,99672.20
2023-04-11T20:45:22.048Z,99670.79
2023-04-11T20:50:25.924Z,99678.09
2023-04-11T20:55:44.460Z,99683.45
2023-04-11T21:01:08.180Z,99689.19
2023-04-11T21:06:11.852Z,99695.63
2023-04-11T21:11:18.204Z,99697.23
2023-04-11T21:16:22.016Z,99692.77
2023-04-11T21:21:25.842Z,99690.90
2023-04-11T21:26:29.451Z,99691.52
2023-04-11T21:31:33.273Z,99689.86
2023-04-11T21:36:51.131Z,99689.57
2023-04-11T21:42:00.289Z,99691.83
2023-04-11T21:47:06.762Z,99691.85
2023-04-11T21:52:15.813Z,99692.93
2023-04-11T21:57:19.210Z,99683.07
2023-04-11T22:02:22.923Z,99685.54
2023-04-11T22:08:20.579Z,99686.43
2023-04-11T22:13:46.886Z,99691.23
2023-04-11T22:18:54.606Z,99690.43
2023-04-11T22:23:58.296Z,99690.52
2023-04-11T22:29:06.045Z,99692.31
2023-04-11T22:34:09.883Z,99675.87
2023-04-11T22:39:13.420Z,99674.92
2023-04-11T22:44:19.712Z,99675.52
2023-04-11T22:49:27.085Z,99678.61
2023-04-11T22:54:30.522Z,99678.44
2023-04-11T22:59:34.048Z,99678.02
2023-04-11T23:04:40.017Z,99673.51
2023-04-11T23:09:44.965Z,99676.80
2023-04-11T23:14:53.336Z,99673.00
2023-04-11T23:19:59.669Z,99675.60
2023-04-11T23:25:12.835Z,99663.56
2023-04-11T23:30:28.667Z,99666.09
2023-04-11T23:35:34.292Z,99672.81
2023-04-11T23:40:43.369Z,99677.27
2023-04-11T23:45:49.924Z,99671.93
2023-04-11T23:50:53.340Z,99670.30
2023-04-11T23:55:56.667Z,99665.66
